sensor_id;sensor_type;location;lat;lon;timestamp;P1;durP1;ratioP1;P2;durP2;ratioP2
43152;SDS011;28756;49.064;9.290;2024-01-10T00:00:01;17.00;;;8.82;;
43152;SDS011;28756;49.064;9.290;2024-01-10T00:02:26;14.00;;;8.20;;
43152;SDS011;28756;49.064;9.290;2024-01-10T00:04:52;14.93;;;8.30;;
43152;SDS011;28756;49.064;9.290;2024-01-10T00:07:18;17.08;;;9.27;;
43152;SDS011;28756;49.064;9.290;2024-01-10T00:09:43;15.98;;;8.60;;
43152;SDS011;28756;49.064;9.290;2024-01-10T00:12:10;16.35;;;8.85;;
43152;SDS011;28756;49.064;9.290;2024-01-10T00:14:36;16.67;;;8.85;;
43152;SDS011;28756;49.064;9.290;2024-01-10T00:17:02;15.23;;;8.60;;
43152;SDS011;28756;49.064;9.290;2024-01-10T00:19:28;17.88;;;8.57;;
43152;SDS011;28756;49.064;9.290;2024-01-10T00:21:54;17.70;;;8.50;;
43152;SDS011;28756;49.064;9.290;2024-01-10T00:24:20;17.13;;;8.73;;
43152;SDS011;28756;49.064;9.290;2024-01-10T00:26:45;14.90;;;8.77;;
43152;SDS011;28756;49.064;9.290;2024-01-10T00:29:11;15.35;;;8.20;;
43152;SDS011;28756;49.064;9.290;2024-01-10T00:31:37;14.90;;;7.57;;
43152;SDS011;28756;49.064;9.290;2024-01-10T00:34:03;17.25;;;8.27;;
43152;SDS011;28756;49.064;9.290;2024-01-10T00:36:28;17.48;;;8.80;;
43152;SDS011;28756;49.064;9.290;2024-01-10T00:38:54;17.02;;;8.23;;
43152;SDS011;28756;49.064;9.290;2024-01-10T00:41:21;12.57;;;7.00;;
43152;SDS011;28756;49.064;9.290;2024-01-10T00:43:49;15.57;;;7.85;;
43152;SDS011;28756;49.064;9.290;2024-01-10T00:46:15;15.48;;;8.15;;
43152;SDS011;28756;49.064;9.290;2024-01-10T00:48:40;14.10;;;7.95;;
43152;SDS011;28756;49.064;9.290;2024-01-10T00:51:06;16.17;;;8.40;;
43152;SDS011;28756;49.064;9.290;2024-01-10T00:53:34;17.20;;;8.55;;
43152;SDS011;28756;49.064;9.290;2024-01-10T00:56:00;15.18;;;8.23;;
43152;SDS011;28756;49.064;9.290;2024-01-10T00:58:26;13.27;;;8.07;;
43152;SDS011;28756;49.064;9.290;2024-01-10T01:00:51;13.25;;;7.55;;
43152;SDS011;28756;49.064;9.290;2024-01-10T01:03:17;15.23;;;8.25;;
43152;SDS011;28756;49.064;9.290;2024-01-10T01:05:43;16.63;;;8.43;;
43152;SDS011;28756;49.064;9.290;2024-01-10T01:08:08;15.05;;;8.43;;
43152;SDS011;28756;49.064;9.290;2024-01-10T01:10:34;14.35;;;7.38;;
43152;SDS011;28756;49.064;9.290;2024-01-10T01:13:00;16.45;;;8.60;;
43152;SDS011;28756;49.064;9.290;2024-01-10T01:15:26;16.83;;;8.02;;
43152;SDS011;28756;49.064;9.290;2024-01-10T01:17:51;18.25;;;8.00;;
43152;SDS011;28756;49.064;9.290;2024-01-10T01:20:17;15.00;;;8.75;;
43152;SDS011;28756;49.064;9.290;2024-01-10T01:22:42;15.30;;;8.43;;
43152;SDS011;28756;49.064;9.290;2024-01-10T01:25:08;14.55;;;8.30;;
43152;SDS011;28756;49.064;9.290;2024-01-10T01:27:34;14.70;;;8.30;;
43152;SDS011;28756;49.064;9.290;2024-01-10T01:30:00;18.27;;;8.30;;
43152;SDS011;28756;49.064;9.290;2024-01-10T01:32:25;12.93;;;7.53;;
43152;SDS011;28756;49.064;9.290;2024-01-10T01:34:51;14.48;;;7.53;;
43152;SDS011;28756;49.064;9.290;2024-01-10T01:37:17;14.73;;;8.02;;
43152;SDS011;28756;49.064;9.290;2024-01-10T01:39:42;16.33;;;9.05;;
43152;SDS011;28756;49.064;9.290;2024-01-10T01:42:08;15.48;;;8.40;;
43152;SDS011;28756;49.064;9.290;2024-01-10T01:44:34;15.25;;;8.07;;
43152;SDS011;28756;49.064;9.290;2024-01-10T01:47:00;16.17;;;8.43;;
43152;SDS011;28756;49.064;9.290;2024-01-10T01:49:26;15.55;;;8.00;;
43152;SDS011;28756;49.064;9.290;2024-01-10T01:51:53;18.08;;;8.70;;
43152;SDS011;28756;49.064;9.290;2024-01-10T01:54:20;17.15;;;8.85;;
43152;SDS011;28756;49.064;9.290;2024-01-10T01:56:46;16.25;;;8.82;;
43152;SDS011;28756;49.064;9.290;2024-01-10T01:59:12;15.88;;;9.13;;
43152;SDS011;28756;49.064;9.290;2024-01-10T02:01:39;17.10;;;8.43;;
43152;SDS011;28756;49.064;9.290;2024-01-10T02:04:05;17.00;;;8.77;;
43152;SDS011;28756;49.064;9.290;2024-01-10T02:06:31;16.00;;;8.75;;
43152;SDS011;28756;49.064;9.290;2024-01-10T02:08:57;14.48;;;7.95;;
43152;SDS011;28756;49.064;9.290;2024-01-10T02:11:23;16.17;;;8.88;;
43152;SDS011;28756;49.064;9.290;2024-01-10T02:13:50;17.90;;;9.18;;
43152;SDS011;28756;49.064;9.290;2024-01-10T02:16:19;17.60;;;8.93;;
43152;SDS011;28756;49.064;9.290;2024-01-10T02:18:46;14.27;;;7.95;;
43152;SDS011;28756;49.064;9.290;2024-01-10T02:21:12;18.67;;;8.80;;
43152;SDS011;28756;49.064;9.290;2024-01-10T02:23:37;14.23;;;8.15;;
43152;SDS011;28756;49.064;9.290;2024-01-10T02:26:03;15.55;;;7.85;;
43152;SDS011;28756;49.064;9.290;2024-01-10T02:28:29;16.33;;;8.75;;
43152;SDS011;28756;49.064;9.290;2024-01-10T02:30:55;15.32;;;7.68;;
43152;SDS011;28756;49.064;9.290;2024-01-10T02:33:22;16.25;;;8.00;;
43152;SDS011;28756;49.064;9.290;2024-01-10T02:35:48;14.80;;;8.65;;
43152;SDS011;28756;49.064;9.290;2024-01-10T02:38:13;13.45;;;8.18;;
43152;SDS011;28756;49.064;9.290;2024-01-10T02:40:39;13.40;;;7.68;;
43152;SDS011;28756;49.064;9.290;2024-01-10T02:43:05;15.63;;;8.68;;
43152;SDS011;28756;49.064;9.290;2024-01-10T02:45:32;16.88;;;9.38;;
43152;SDS011;28756;49.064;9.290;2024-01-10T02:47:58;17.15;;;9.00;;
43152;SDS011;28756;49.064;9.290;2024-01-10T02:50:24;19.63;;;9.85;;
43152;SDS011;28756;49.064;9.290;2024-01-10T02:52:50;14.85;;;8.57;;
43152;SDS011;28756;49.064;9.290;2024-01-10T02:55:16;17.88;;;9.20;;
43152;SDS011;28756;49.064;9.290;2024-01-10T02:57:41;17.38;;;9.32;;
43152;SDS011;28756;49.064;9.290;2024-01-10T03:00:07;16.17;;;8.95;;
43152;SDS011;28756;49.064;9.290;2024-01-10T03:02:37;17.65;;;9.02;;
43152;SDS011;28756;49.064;9.290;2024-01-10T03:05:02;16.95;;;9.50;;
43152;SDS011;28756;49.064;9.290;2024-01-10T03:07:29;17.40;;;8.90;;
43152;SDS011;28756;49.064;9.290;2024-01-10T03:09:54;17.30;;;9.25;;
43152;SDS011;28756;49.064;9.290;2024-01-10T03:12:20;17.50;;;9.15;;
43152;SDS011;28756;49.064;9.290;2024-01-10T03:14:46;17.05;;;9.32;;
43152;SDS011;28756;49.064;9.290;2024-01-10T03:17:12;18.02;;;9.63;;
43152;SDS011;28756;49.064;9.290;2024-01-10T03:19:37;18.90;;;10.20;;
43152;SDS011;28756;49.064;9.290;2024-01-10T03:22:07;17.60;;;9.68;;
43152;SDS011;28756;49.064;9.290;2024-01-10T03:24:33;17.33;;;9.15;;
43152;SDS011;28756;49.064;9.290;2024-01-10T03:26:59;16.95;;;9.38;;
43152;SDS011;28756;49.064;9.290;2024-01-10T03:29:24;17.23;;;8.93;;
43152;SDS011;28756;49.064;9.290;2024-01-10T03:31:50;17.73;;;9.40;;
43152;SDS011;28756;49.064;9.290;2024-01-10T03:34:16;17.42;;;8.73;;
43152;SDS011;28756;49.064;9.290;2024-01-10T03:36:43;17.98;;;9.32;;
43152;SDS011;28756;49.064;9.290;2024-01-10T03:39:08;18.38;;;10.00;;
43152;SDS011;28756;49.064;9.290;2024-01-10T03:41:35;16.70;;;9.48;;
43152;SDS011;28756;49.064;9.290;2024-01-10T03:44:04;16.80;;;9.63;;
43152;SDS011;28756;49.064;9.290;2024-01-10T03:46:30;18.08;;;9.57;;
43152;SDS011;28756;49.064;9.290;2024-01-10T03:48:56;16.88;;;9.45;;
43152;SDS011;28756;49.064;9.290;2024-01-10T03:51:22;18.17;;;9.55;;
43152;SDS011;28756;49.064;9.290;2024-01-10T03:53:48;17.67;;;9.10;;
43152;SDS011;28756;49.064;9.290;2024-01-10T03:56:14;18.52;;;8.82;;
43152;SDS011;28756;49.064;9.290;2024-01-10T03:58:40;19.92;;;9.68;;
43152;SDS011;28756;49.064;9.290;2024-01-10T04:01:06;16.95;;;9.60;;
43152;SDS011;28756;49.064;9.290;2024-01-10T04:03:33;18.20;;;9.82;;
43152;SDS011;28756;49.064;9.290;2024-01-10T04:06:00;14.32;;;8.65;;
43152;SDS011;28756;49.064;9.290;2024-01-10T04:08:27;15.48;;;8.40;;
43152;SDS011;28756;49.064;9.290;2024-01-10T04:10:52;16.20;;;9.13;;
43152;SDS011;28756;49.064;9.290;2024-01-10T04:13:18;14.13;;;7.75;;
43152;SDS011;28756;49.064;9.290;2024-01-10T04:15:44;15.88;;;9.15;;
43152;SDS011;28756;49.064;9.290;2024-01-10T04:18:10;20.10;;;10.35;;
43152;SDS011;28756;49.064;9.290;2024-01-10T04:20:35;17.77;;;9.15;;
43152;SDS011;28756;49.064;9.290;2024-01-10T04:23:01;16.98;;;9.57;;
43152;SDS011;28756;49.064;9.290;2024-01-10T04:25:27;17.70;;;9.93;;
43152;SDS011;28756;49.064;9.290;2024-01-10T04:27:53;19.77;;;10.73;;
43152;SDS011;28756;49.064;9.290;2024-01-10T04:30:20;18.42;;;9.73;;
43152;SDS011;28756;49.064;9.290;2024-01-10T04:32:46;17.05;;;9.30;;
43152;SDS011;28756;49.064;9.290;2024-01-10T04:35:11;18.58;;;10.00;;
43152;SDS011;28756;49.064;9.290;2024-01-10T04:37:37;17.13;;;9.35;;
43152;SDS011;28756;49.064;9.290;2024-01-10T04:40:04;15.52;;;8.68;;
43152;SDS011;28756;49.064;9.290;2024-01-10T04:42:30;18.02;;;9.20;;
43152;SDS011;28756;49.064;9.290;2024-01-10T04:44:56;22.25;;;10.93;;
43152;SDS011;28756;49.064;9.290;2024-01-10T04:47:22;18.15;;;10.18;;
43152;SDS011;28756;49.064;9.290;2024-01-10T04:49:47;19.13;;;10.00;;
43152;SDS011;28756;49.064;9.290;2024-01-10T04:52:13;18.08;;;10.45;;
43152;SDS011;28756;49.064;9.290;2024-01-10T04:54:39;20.27;;;10.40;;
43152;SDS011;28756;49.064;9.290;2024-01-10T04:57:05;21.05;;;11.07;;
43152;SDS011;28756;49.064;9.290;2024-01-10T04:59:31;21.77;;;12.10;;
43152;SDS011;28756;49.064;9.290;2024-01-10T05:01:56;21.08;;;10.95;;
43152;SDS011;28756;49.064;9.290;2024-01-10T05:04:22;20.00;;;10.90;;
43152;SDS011;28756;49.064;9.290;2024-01-10T05:06:48;20.58;;;11.27;;
43152;SDS011;28756;49.064;9.290;2024-01-10T05:09:14;21.17;;;11.93;;
43152;SDS011;28756;49.064;9.290;2024-01-10T05:11:40;18.60;;;10.80;;
43152;SDS011;28756;49.064;9.290;2024-01-10T05:14:05;19.38;;;10.00;;
43152;SDS011;28756;49.064;9.290;2024-01-10T05:16:31;18.25;;;9.85;;
43152;SDS011;28756;49.064;9.290;2024-01-10T05:18:58;19.85;;;10.93;;
43152;SDS011;28756;49.064;9.290;2024-01-10T05:21:28;21.42;;;11.02;;
43152;SDS011;28756;49.064;9.290;2024-01-10T05:23:56;20.95;;;10.07;;
43152;SDS011;28756;49.064;9.290;2024-01-10T05:26:21;19.88;;;10.70;;
43152;SDS011;28756;49.064;9.290;2024-01-10T05:28:47;20.13;;;10.50;;
43152;SDS011;28756;49.064;9.290;2024-01-10T05:31:13;19.38;;;10.95;;
43152;SDS011;28756;49.064;9.290;2024-01-10T05:33:39;18.48;;;10.30;;
43152;SDS011;28756;49.064;9.290;2024-01-10T05:36:05;18.80;;;10.23;;
43152;SDS011;28756;49.064;9.290;2024-01-10T05:38:31;22.38;;;10.48;;
43152;SDS011;28756;49.064;9.290;2024-01-10T05:40:57;18.90;;;10.35;;
43152;SDS011;28756;49.064;9.290;2024-01-10T05:43:23;19.52;;;11.07;;
43152;SDS011;28756;49.064;9.290;2024-01-10T05:45:49;18.38;;;10.35;;
43152;SDS011;28756;49.064;9.290;2024-01-10T05:48:14;19.42;;;10.65;;
43152;SDS011;28756;49.064;9.290;2024-01-10T05:50:42;19.23;;;10.63;;
43152;SDS011;28756;49.064;9.290;2024-01-10T05:53:07;20.75;;;11.65;;
43152;SDS011;28756;49.064;9.290;2024-01-10T05:55:35;17.65;;;10.40;;
43152;SDS011;28756;49.064;9.290;2024-01-10T05:58:01;22.45;;;12.00;;
43152;SDS011;28756;49.064;9.290;2024-01-10T06:00:27;24.83;;;12.10;;
43152;SDS011;28756;49.064;9.290;2024-01-10T06:02:53;20.33;;;11.48;;
43152;SDS011;28756;49.064;9.290;2024-01-10T06:05:19;20.90;;;11.23;;
43152;SDS011;28756;49.064;9.290;2024-01-10T06:07:45;21.15;;;11.50;;
43152;SDS011;28756;49.064;9.290;2024-01-10T06:10:10;22.00;;;11.90;;
43152;SDS011;28756;49.064;9.290;2024-01-10T06:12:39;19.17;;;10.65;;
43152;SDS011;28756;49.064;9.290;2024-01-10T06:15:05;20.33;;;10.93;;
43152;SDS011;28756;49.064;9.290;2024-01-10T06:17:32;19.60;;;11.57;;
43152;SDS011;28756;49.064;9.290;2024-01-10T06:19:58;20.27;;;10.70;;
43152;SDS011;28756;49.064;9.290;2024-01-10T06:22:25;19.83;;;11.10;;
43152;SDS011;28756;49.064;9.290;2024-01-10T06:24:51;20.92;;;11.48;;
43152;SDS011;28756;49.064;9.290;2024-01-10T06:27:17;22.30;;;12.05;;
43152;SDS011;28756;49.064;9.290;2024-01-10T06:29:43;21.00;;;11.75;;
43152;SDS011;28756;49.064;9.290;2024-01-10T06:32:10;19.38;;;11.18;;
43152;SDS011;28756;49.064;9.290;2024-01-10T06:34:36;20.65;;;11.30;;
43152;SDS011;28756;49.064;9.290;2024-01-10T06:37:02;19.88;;;11.32;;
43152;SDS011;28756;49.064;9.290;2024-01-10T06:39:28;23.10;;;12.18;;
43152;SDS011;28756;49.064;9.290;2024-01-10T06:41:54;25.70;;;12.45;;
43152;SDS011;28756;49.064;9.290;2024-01-10T06:44:20;20.27;;;11.48;;
43152;SDS011;28756;49.064;9.290;2024-01-10T06:46:46;21.60;;;11.02;;
43152;SDS011;28756;49.064;9.290;2024-01-10T06:49:12;21.75;;;11.88;;
43152;SDS011;28756;49.064;9.290;2024-01-10T06:51:37;20.90;;;11.90;;
43152;SDS011;28756;49.064;9.290;2024-01-10T06:54:03;20.60;;;11.27;;
43152;SDS011;28756;49.064;9.290;2024-01-10T06:56:30;19.95;;;11.27;;
43152;SDS011;28756;49.064;9.290;2024-01-10T06:58:57;20.35;;;11.63;;
43152;SDS011;28756;49.064;9.290;2024-01-10T07:01:24;20.80;;;12.10;;
43152;SDS011;28756;49.064;9.290;2024-01-10T07:03:51;24.02;;;12.50;;
43152;SDS011;28756;49.064;9.290;2024-01-10T07:06:17;20.05;;;11.32;;
43152;SDS011;28756;49.064;9.290;2024-01-10T07:08:44;19.95;;;10.75;;
43152;SDS011;28756;49.064;9.290;2024-01-10T07:11:12;20.77;;;10.93;;
43152;SDS011;28756;49.064;9.290;2024-01-10T07:13:38;20.65;;;11.63;;
43152;SDS011;28756;49.064;9.290;2024-01-10T07:16:05;20.45;;;11.75;;
43152;SDS011;28756;49.064;9.290;2024-01-10T07:18:31;19.25;;;10.88;;
43152;SDS011;28756;49.064;9.290;2024-01-10T07:20:57;22.30;;;11.32;;
43152;SDS011;28756;49.064;9.290;2024-01-10T07:23:23;18.95;;;10.23;;
43152;SDS011;28756;49.064;9.290;2024-01-10T07:25:49;26.70;;;11.50;;
43152;SDS011;28756;49.064;9.290;2024-01-10T07:28:18;20.33;;;11.20;;
43152;SDS011;28756;49.064;9.290;2024-01-10T07:30:45;17.73;;;9.63;;
43152;SDS011;28756;49.064;9.290;2024-01-10T07:33:11;20.60;;;11.77;;
43152;SDS011;28756;49.064;9.290;2024-01-10T07:35:37;20.08;;;10.77;;
43152;SDS011;28756;49.064;9.290;2024-01-10T07:38:06;22.25;;;12.13;;
43152;SDS011;28756;49.064;9.290;2024-01-10T07:40:35;20.02;;;11.48;;
43152;SDS011;28756;49.064;9.290;2024-01-10T07:43:01;21.42;;;11.45;;
43152;SDS011;28756;49.064;9.290;2024-01-10T07:45:27;23.55;;;12.52;;
43152;SDS011;28756;49.064;9.290;2024-01-10T07:47:54;21.15;;;12.02;;
43152;SDS011;28756;49.064;9.290;2024-01-10T07:50:20;26.42;;;13.77;;
43152;SDS011;28756;49.064;9.290;2024-01-10T07:52:46;25.30;;;12.73;;
43152;SDS011;28756;49.064;9.290;2024-01-10T07:55:12;23.88;;;12.73;;
43152;SDS011;28756;49.064;9.290;2024-01-10T07:57:38;22.13;;;12.75;;
43152;SDS011;28756;49.064;9.290;2024-01-10T08:00:05;21.35;;;11.68;;
43152;SDS011;28756;49.064;9.290;2024-01-10T08:02:35;22.90;;;12.05;;
43152;SDS011;28756;49.064;9.290;2024-01-10T08:05:01;21.95;;;11.82;;
43152;SDS011;28756;49.064;9.290;2024-01-10T08:07:42;21.95;;;12.13;;
43152;SDS011;28756;49.064;9.290;2024-01-10T08:10:10;20.73;;;11.90;;
43152;SDS011;28756;49.064;9.290;2024-01-10T08:12:36;22.33;;;11.73;;
43152;SDS011;28756;49.064;9.290;2024-01-10T08:15:03;22.92;;;12.77;;
43152;SDS011;28756;49.064;9.290;2024-01-10T08:17:31;23.77;;;12.43;;
43152;SDS011;28756;49.064;9.290;2024-01-10T08:19:58;21.98;;;12.10;;
43152;SDS011;28756;49.064;9.290;2024-01-10T08:22:25;19.70;;;11.50;;
43152;SDS011;28756;49.064;9.290;2024-01-10T08:24:51;23.90;;;13.00;;
43152;SDS011;28756;49.064;9.290;2024-01-10T08:27:22;21.85;;;12.30;;
43152;SDS011;28756;49.064;9.290;2024-01-10T08:29:48;21.13;;;12.00;;
43152;SDS011;28756;49.064;9.290;2024-01-10T08:32:19;22.90;;;12.23;;
43152;SDS011;28756;49.064;9.290;2024-01-10T08:34:47;22.88;;;12.13;;
43152;SDS011;28756;49.064;9.290;2024-01-10T08:37:13;23.20;;;12.40;;
43152;SDS011;28756;49.064;9.290;2024-01-10T08:39:42;21.00;;;12.90;;
43152;SDS011;28756;49.064;9.290;2024-01-10T08:42:09;21.55;;;12.30;;
43152;SDS011;28756;49.064;9.290;2024-01-10T08:44:35;21.42;;;12.13;;
43152;SDS011;28756;49.064;9.290;2024-01-10T08:47:01;23.38;;;13.40;;
43152;SDS011;28756;49.064;9.290;2024-01-10T08:49:27;25.20;;;12.65;;
43152;SDS011;28756;49.064;9.290;2024-01-10T08:51:55;22.30;;;12.85;;
43152;SDS011;28756;49.064;9.290;2024-01-10T08:54:21;20.08;;;11.43;;
43152;SDS011;28756;49.064;9.290;2024-01-10T08:56:47;20.13;;;11.70;;
43152;SDS011;28756;49.064;9.290;2024-01-10T08:59:13;21.70;;;12.02;;
43152;SDS011;28756;49.064;9.290;2024-01-10T09:01:39;21.85;;;12.13;;
43152;SDS011;28756;49.064;9.290;2024-01-10T09:04:05;23.42;;;12.45;;
43152;SDS011;28756;49.064;9.290;2024-01-10T09:06:31;22.20;;;12.27;;
43152;SDS011;28756;49.064;9.290;2024-01-10T09:08:58;19.20;;;10.88;;
43152;SDS011;28756;49.064;9.290;2024-01-10T09:11:24;22.13;;;11.77;;
43152;SDS011;28756;49.064;9.290;2024-01-10T09:13:55;20.02;;;11.52;;
43152;SDS011;28756;49.064;9.290;2024-01-10T09:16:24;21.23;;;12.23;;
43152;SDS011;28756;49.064;9.290;2024-01-10T09:18:50;25.98;;;13.18;;
43152;SDS011;28756;49.064;9.290;2024-01-10T09:21:19;23.50;;;12.55;;
43152;SDS011;28756;49.064;9.290;2024-01-10T09:23:46;20.20;;;11.63;;
43152;SDS011;28756;49.064;9.290;2024-01-10T09:26:12;22.58;;;12.57;;
43152;SDS011;28756;49.064;9.290;2024-01-10T09:28:38;23.73;;;12.27;;
43152;SDS011;28756;49.064;9.290;2024-01-10T09:31:05;26.67;;;15.68;;
43152;SDS011;28756;49.064;9.290;2024-01-10T09:33:32;25.25;;;16.55;;
43152;SDS011;28756;49.064;9.290;2024-01-10T09:35:59;23.55;;;13.57;;
43152;SDS011;28756;49.064;9.290;2024-01-10T09:38:24;23.75;;;13.95;;
43152;SDS011;28756;49.064;9.290;2024-01-10T09:40:51;24.05;;;12.98;;
43152;SDS011;28756;49.064;9.290;2024-01-10T09:43:26;24.27;;;13.32;;
43152;SDS011;28756;49.064;9.290;2024-01-10T09:45:54;23.17;;;13.35;;
43152;SDS011;28756;49.064;9.290;2024-01-10T09:48:22;26.73;;;14.73;;
43152;SDS011;28756;49.064;9.290;2024-01-10T09:50:48;23.17;;;13.73;;
43152;SDS011;28756;49.064;9.290;2024-01-10T09:53:23;22.85;;;13.38;;
43152;SDS011;28756;49.064;9.290;2024-01-10T09:55:51;25.00;;;13.82;;
43152;SDS011;28756;49.064;9.290;2024-01-10T09:58:21;26.35;;;14.45;;
43152;SDS011;28756;49.064;9.290;2024-01-10T10:00:50;22.38;;;12.88;;
43152;SDS011;28756;49.064;9.290;2024-01-10T10:03:16;25.52;;;13.73;;
43152;SDS011;28756;49.064;9.290;2024-01-10T10:05:43;25.67;;;14.05;;
43152;SDS011;28756;49.064;9.290;2024-01-10T10:08:10;24.50;;;14.43;;
43152;SDS011;28756;49.064;9.290;2024-01-10T10:10:40;25.55;;;14.95;;
43152;SDS011;28756;49.064;9.290;2024-01-10T10:13:10;26.02;;;15.68;;
43152;SDS011;28756;49.064;9.290;2024-01-10T10:15:56;25.15;;;14.57;;
43152;SDS011;28756;49.064;9.290;2024-01-10T10:18:24;23.35;;;13.98;;
43152;SDS011;28756;49.064;9.290;2024-01-10T10:21:04;24.83;;;14.35;;
43152;SDS011;28756;49.064;9.290;2024-01-10T10:23:33;26.42;;;14.52;;
43152;SDS011;28756;49.064;9.290;2024-01-10T10:26:09;23.90;;;14.80;;
43152;SDS011;28756;49.064;9.290;2024-01-10T10:28:48;21.67;;;14.20;;
43152;SDS011;28756;49.064;9.290;2024-01-10T10:31:18;23.15;;;14.65;;
43152;SDS011;28756;49.064;9.290;2024-01-10T10:33:45;22.60;;;13.95;;
43152;SDS011;28756;49.064;9.290;2024-01-10T10:36:13;22.30;;;14.23;;
43152;SDS011;28756;49.064;9.290;2024-01-10T10:38:39;23.05;;;14.07;;
43152;SDS011;28756;49.064;9.290;2024-01-10T10:41:06;22.17;;;13.82;;
43152;SDS011;28756;49.064;9.290;2024-01-10T10:43:35;22.00;;;13.85;;
43152;SDS011;28756;49.064;9.290;2024-01-10T10:46:04;22.13;;;14.05;;
43152;SDS011;28756;49.064;9.290;2024-01-10T10:48:41;21.92;;;14.25;;
43152;SDS011;28756;49.064;9.290;2024-01-10T10:51:12;20.92;;;13.30;;
43152;SDS011;28756;49.064;9.290;2024-01-10T10:53:53;22.42;;;14.23;;
43152;SDS011;28756;49.064;9.290;2024-01-10T10:56:20;22.67;;;13.25;;
43152;SDS011;28756;49.064;9.290;2024-01-10T10:58:46;23.38;;;14.20;;
43152;SDS011;28756;49.064;9.290;2024-01-10T11:01:13;22.73;;;14.32;;
43152;SDS011;28756;49.064;9.290;2024-01-10T11:03:40;26.92;;;14.25;;
43152;SDS011;28756;49.064;9.290;2024-01-10T11:06:12;20.40;;;13.90;;
43152;SDS011;28756;49.064;9.290;2024-01-10T11:08:55;21.70;;;13.75;;
43152;SDS011;28756;49.064;9.290;2024-01-10T11:23:42;21.73;;;13.60;;
43152;SDS011;28756;49.064;9.290;2024-01-10T11:26:14;20.48;;;13.52;;
43152;SDS011;28756;49.064;9.290;2024-01-10T11:28:41;21.17;;;13.82;;
43152;SDS011;28756;49.064;9.290;2024-01-10T11:31:07;21.30;;;12.85;;
43152;SDS011;28756;49.064;9.290;2024-01-10T11:33:34;20.30;;;13.68;;
43152;SDS011;28756;49.064;9.290;2024-01-10T11:36:15;24.83;;;14.05;;
43152;SDS011;28756;49.064;9.290;2024-01-10T11:38:51;20.45;;;12.90;;
43152;SDS011;28756;49.064;9.290;2024-01-10T11:44:25;20.38;;;13.55;;
43152;SDS011;28756;49.064;9.290;2024-01-10T11:49:17;21.42;;;13.32;;
43152;SDS011;28756;49.064;9.290;2024-01-10T11:51:46;22.33;;;14.63;;
43152;SDS011;28756;49.064;9.290;2024-01-10T11:57:20;21.85;;;13.55;;
43152;SDS011;28756;49.064;9.290;2024-01-10T11:59:47;21.52;;;13.32;;
43152;SDS011;28756;49.064;9.290;2024-01-10T12:02:19;20.85;;;13.43;;
43152;SDS011;28756;49.064;9.290;2024-01-10T12:04:47;20.27;;;12.80;;
43152;SDS011;28756;49.064;9.290;2024-01-10T12:07:14;20.20;;;12.43;;
43152;SDS011;28756;49.064;9.290;2024-01-10T12:09:41;20.27;;;13.52;;
43152;SDS011;28756;49.064;9.290;2024-01-10T12:12:07;22.05;;;13.48;;
43152;SDS011;28756;49.064;9.290;2024-01-10T12:14:34;20.17;;;13.38;;
43152;SDS011;28756;49.064;9.290;2024-01-10T12:17:00;19.17;;;12.55;;
43152;SDS011;28756;49.064;9.290;2024-01-10T12:19:27;19.77;;;12.77;;
43152;SDS011;28756;49.064;9.290;2024-01-10T12:21:53;20.08;;;13.32;;
43152;SDS011;28756;49.064;9.290;2024-01-10T12:24:19;22.40;;;13.52;;
43152;SDS011;28756;49.064;9.290;2024-01-10T12:26:46;18.55;;;12.23;;
43152;SDS011;28756;49.064;9.290;2024-01-10T12:29:16;22.05;;;13.50;;
43152;SDS011;28756;49.064;9.290;2024-01-10T12:31:45;20.48;;;12.98;;
43152;SDS011;28756;49.064;9.290;2024-01-10T12:34:12;22.27;;;13.38;;
43152;SDS011;28756;49.064;9.290;2024-01-10T12:36:37;23.63;;;14.02;;
43152;SDS011;28756;49.064;9.290;2024-01-10T12:39:03;19.77;;;12.88;;
43152;SDS011;28756;49.064;9.290;2024-01-10T12:41:32;21.30;;;12.88;;
43152;SDS011;28756;49.064;9.290;2024-01-10T12:43:59;18.73;;;11.98;;
43152;SDS011;28756;49.064;9.290;2024-01-10T12:46:29;21.00;;;12.73;;
43152;SDS011;28756;49.064;9.290;2024-01-10T12:51:30;19.85;;;12.93;;
43152;SDS011;28756;49.064;9.290;2024-01-10T12:53:58;20.27;;;12.63;;
43152;SDS011;28756;49.064;9.290;2024-01-10T12:56:25;21.77;;;13.10;;
43152;SDS011;28756;49.064;9.290;2024-01-10T12:58:52;21.50;;;13.20;;
43152;SDS011;28756;49.064;9.290;2024-01-10T13:01:19;19.77;;;12.57;;
43152;SDS011;28756;49.064;9.290;2024-01-10T13:03:46;19.75;;;12.35;;
43152;SDS011;28756;49.064;9.290;2024-01-10T13:06:13;20.35;;;12.13;;
43152;SDS011;28756;49.064;9.290;2024-01-10T13:08:39;21.35;;;12.13;;
43152;SDS011;28756;49.064;9.290;2024-01-10T13:11:05;18.83;;;11.75;;
43152;SDS011;28756;49.064;9.290;2024-01-10T13:13:34;20.98;;;13.80;;
43152;SDS011;28756;49.064;9.290;2024-01-10T13:16:01;21.77;;;13.43;;
43152;SDS011;28756;49.064;9.290;2024-01-10T13:18:27;23.55;;;13.13;;
43152;SDS011;28756;49.064;9.290;2024-01-10T13:20:53;20.90;;;12.60;;
43152;SDS011;28756;49.064;9.290;2024-01-10T13:23:20;20.67;;;13.05;;
43152;SDS011;28756;49.064;9.290;2024-01-10T13:25:49;21.35;;;13.45;;
43152;SDS011;28756;49.064;9.290;2024-01-10T13:28:16;20.58;;;13.02;;
43152;SDS011;28756;49.064;9.290;2024-01-10T13:30:43;21.38;;;13.80;;
43152;SDS011;28756;49.064;9.290;2024-01-10T13:33:09;21.33;;;12.30;;
43152;SDS011;28756;49.064;9.290;2024-01-10T13:35:36;20.55;;;11.70;;
43152;SDS011;28756;49.064;9.290;2024-01-10T13:38:10;19.52;;;11.85;;
43152;SDS011;28756;49.064;9.290;2024-01-10T13:40:35;23.52;;;14.13;;
43152;SDS011;28756;49.064;9.290;2024-01-10T13:43:01;19.67;;;13.05;;
43152;SDS011;28756;49.064;9.290;2024-01-10T13:45:27;22.15;;;13.43;;
43152;SDS011;28756;49.064;9.290;2024-01-10T13:47:54;25.05;;;14.80;;
43152;SDS011;28756;49.064;9.290;2024-01-10T13:50:20;25.27;;;14.20;;
43152;SDS011;28756;49.064;9.290;2024-01-10T13:52:46;24.08;;;14.32;;
43152;SDS011;28756;49.064;9.290;2024-01-10T13:55:12;24.90;;;13.95;;
43152;SDS011;28756;49.064;9.290;2024-01-10T13:57:38;23.98;;;14.50;;
43152;SDS011;28756;49.064;9.290;2024-01-10T14:00:05;22.80;;;13.77;;
43152;SDS011;28756;49.064;9.290;2024-01-10T14:02:39;23.58;;;13.00;;
43152;SDS011;28756;49.064;9.290;2024-01-10T14:05:08;23.88;;;14.00;;
43152;SDS011;28756;49.064;9.290;2024-01-10T14:07:35;24.20;;;14.52;;
43152;SDS011;28756;49.064;9.290;2024-01-10T14:10:01;25.90;;;15.35;;
43152;SDS011;28756;49.064;9.290;2024-01-10T14:12:27;25.58;;;15.25;;
43152;SDS011;28756;49.064;9.290;2024-01-10T14:14:54;22.98;;;14.57;;
43152;SDS011;28756;49.064;9.290;2024-01-10T14:17:20;23.05;;;14.57;;
43152;SDS011;28756;49.064;9.290;2024-01-10T14:19:47;25.23;;;14.52;;
43152;SDS011;28756;49.064;9.290;2024-01-10T14:22:15;24.40;;;15.00;;
43152;SDS011;28756;49.064;9.290;2024-01-10T14:24:42;26.95;;;15.30;;
43152;SDS011;28756;49.064;9.290;2024-01-10T14:27:09;26.10;;;15.75;;
43152;SDS011;28756;49.064;9.290;2024-01-10T14:29:34;26.23;;;16.02;;
43152;SDS011;28756;49.064;9.290;2024-01-10T14:32:00;27.40;;;16.65;;
43152;SDS011;28756;49.064;9.290;2024-01-10T14:34:27;29.50;;;17.02;;
43152;SDS011;28756;49.064;9.290;2024-01-10T14:36:52;25.23;;;15.10;;
43152;SDS011;28756;49.064;9.290;2024-01-10T14:39:18;22.98;;;15.05;;
43152;SDS011;28756;49.064;9.290;2024-01-10T14:41:44;25.83;;;15.77;;
43152;SDS011;28756;49.064;9.290;2024-01-10T14:44:12;26.63;;;15.73;;
43152;SDS011;28756;49.064;9.290;2024-01-10T14:46:38;22.85;;;14.63;;